sensor_id;sensor_type;location;lat;lon;timestamp;temperature;humidity
12769;DHT22;6448;48.916;8.990;2023-01-19T00:00:40;6.30;53.20
12769;DHT22;6448;48.916;8.990;2023-01-19T00:01:43;6.30;53.20
12769;DHT22;6448;48.916;8.990;2023-01-19T00:02:45;6.20;53.10
12769;DHT22;6448;48.916;8.990;2023-01-19T00:03:46;6.20;53.10
12769;DHT22;6448;48.916;8.990;2023-01-19T00:04:48;6.20;53.10
12769;DHT22;6448;48.916;8.990;2023-01-19T00:05:49;6.20;53.10
12769;DHT22;6448;48.916;8.990;2023-01-19T00:06:52;6.20;53.10
12769;DHT22;6448;48.916;8.990;2023-01-19T00:07:52;6.20;53.00
12769;DHT22;6448;48.916;8.990;2023-01-19T00:08:54;6.20;53.10
12769;DHT22;6448;48.916;8.990;2023-01-19T00:09:55;6.20;53.10
12769;DHT22;6448;48.916;8.990;2023-01-19T00:10:57;6.20;53.10
12769;DHT22;6448;48.916;8.990;2023-01-19T00:11:57;6.20;53.00
12769;DHT22;6448;48.916;8.990;2023-01-19T00:12:59;6.20;53.10
12769;DHT22;6448;48.916;8.990;2023-01-19T00:14:00;6.20;53.00
12769;DHT22;6448;48.916;8.990;2023-01-19T00:15:02;6.20;53.10
12769;DHT22;6448;48.916;8.990;2023-01-19T00:16:04;6.20;53.10
12769;DHT22;6448;48.916;8.990;2023-01-19T00:17:07;6.20;53.00
12769;DHT22;6448;48.916;8.990;2023-01-19T00:18:09;6.20;53.00
12769;DHT22;6448;48.916;8.990;2023-01-19T00:19:09;6.20;53.00
12769;DHT22;6448;48.916;8.990;2023-01-19T00:20:11;6.20;53.00
12769;DHT22;6448;48.916;8.990;2023-01-19T00:21:13;6.20;53.00
12769;DHT22;6448;48.916;8.990;2023-01-19T00:22:15;6.40;53.20
12769;DHT22;6448;48.916;8.990;2023-01-19T00:23:17;6.20;53.00
12769;DHT22;6448;48.916;8.990;2023-01-19T00:24:18;6.40;53.00
12769;DHT22;6448;48.916;8.990;2023-01-19T00:25:19;6.10;52.90
12769;DHT22;6448;48.916;8.990;2023-01-19T00:26:20;6.10;52.90
12769;DHT22;6448;48.916;8.990;2023-01-19T00:27:22;6.10;52.90
12769;DHT22;6448;48.916;8.990;2023-01-19T00:28:24;6.10;52.80
12769;DHT22;6448;48.916;8.990;2023-01-19T00:29:26;6.10;52.90
12769;DHT22;6448;48.916;8.990;2023-01-19T00:30:30;6.10;52.90
12769;DHT22;6448;48.916;8.990;2023-01-19T00:31:31;6.10;52.80
12769;DHT22;6448;48.916;8.990;2023-01-19T00:32:34;6.30;53.00
12769;DHT22;6448;48.916;8.990;2023-01-19T00:33:35;6.10;52.90
12769;DHT22;6448;48.916;8.990;2023-01-19T00:34:37;6.10;52.90
12769;DHT22;6448;48.916;8.990;2023-01-19T00:35:50;6.10;53.00
12769;DHT22;6448;48.916;8.990;2023-01-19T00:36:52;6.10;53.50
12769;DHT22;6448;48.916;8.990;2023-01-19T00:37:52;6.10;52.90
12769;DHT22;6448;48.916;8.990;2023-01-19T00:38:56;6.10;53.00
12769;DHT22;6448;48.916;8.990;2023-01-19T00:39:56;6.10;52.90
12769;DHT22;6448;48.916;8.990;2023-01-19T00:40:58;6.10;52.90
12769;DHT22;6448;48.916;8.990;2023-01-19T00:41:59;6.10;52.80
12769;DHT22;6448;48.916;8.990;2023-01-19T00:43:18;6.10;52.80
12769;DHT22;6448;48.916;8.990;2023-01-19T00:44:20;6.10;52.80
12769;DHT22;6448;48.916;8.990;2023-01-19T00:45:22;6.00;52.80
12769;DHT22;6448;48.916;8.990;2023-01-19T00:46:24;6.00;52.90
12769;DHT22;6448;48.916;8.990;2023-01-19T00:47:26;6.00;52.70
12769;DHT22;6448;48.916;8.990;2023-01-19T00:48:29;6.00;52.70
12769;DHT22;6448;48.916;8.990;2023-01-19T00:49:30;6.00;52.70
12769;DHT22;6448;48.916;8.990;2023-01-19T00:50:32;6.00;52.70
12769;DHT22;6448;48.916;8.990;2023-01-19T00:51:33;6.00;52.80
12769;DHT22;6448;48.916;8.990;2023-01-19T00:52:35;6.00;52.70
12769;DHT22;6448;48.916;8.990;2023-01-19T00:53:36;6.00;52.70
12769;DHT22;6448;48.916;8.990;2023-01-19T00:54:37;6.00;52.80
12769;DHT22;6448;48.916;8.990;2023-01-19T00:55:38;6.00;52.70
12769;DHT22;6448;48.916;8.990;2023-01-19T00:56:40;6.10;52.80
12769;DHT22;6448;48.916;8.990;2023-01-19T00:57:41;6.00;52.70
12769;DHT22;6448;48.916;8.990;2023-01-19T00:58:43;6.00;52.70
12769;DHT22;6448;48.916;8.990;2023-01-19T00:59:44;6.30;52.90
12769;DHT22;6448;48.916;8.990;2023-01-19T01:00:46;6.00;52.70
12769;DHT22;6448;48.916;8.990;2023-01-19T01:01:47;6.00;53.30
12769;DHT22;6448;48.916;8.990;2023-01-19T01:02:50;6.00;52.70
12769;DHT22;6448;48.916;8.990;2023-01-19T01:03:53;6.00;52.70
12769;DHT22;6448;48.916;8.990;2023-01-19T01:04:55;5.90;52.60
12769;DHT22;6448;48.916;8.990;2023-01-19T01:05:56;6.00;52.60
12769;DHT22;6448;48.916;8.990;2023-01-19T01:06:58;6.20;52.80
12769;DHT22;6448;48.916;8.990;2023-01-19T01:07:58;6.00;52.60
12769;DHT22;6448;48.916;8.990;2023-01-19T01:09:00;5.90;52.60
12769;DHT22;6448;48.916;8.990;2023-01-19T01:10:13;5.90;52.60
12769;DHT22;6448;48.916;8.990;2023-01-19T01:11:14;5.90;52.70
12769;DHT22;6448;48.916;8.990;2023-01-19T01:12:15;6.00;52.70
12769;DHT22;6448;48.916;8.990;2023-01-19T01:13:17;6.00;52.70
12769;DHT22;6448;48.916;8.990;2023-01-19T01:14:18;5.90;52.80
12769;DHT22;6448;48.916;8.990;2023-01-19T01:15:20;5.90;52.70
12769;DHT22;6448;48.916;8.990;2023-01-19T01:16:21;5.90;52.70
12769;DHT22;6448;48.916;8.990;2023-01-19T01:17:24;5.90;52.70
12769;DHT22;6448;48.916;8.990;2023-01-19T01:18:25;5.90;52.70
12769;DHT22;6448;48.916;8.990;2023-01-19T01:19:28;6.00;52.70
12769;DHT22;6448;48.916;8.990;2023-01-19T01:20:29;5.90;52.60
12769;DHT22;6448;48.916;8.990;2023-01-19T01:21:33;5.90;52.60
12769;DHT22;6448;48.916;8.990;2023-01-19T01:22:34;5.90;52.60
12769;DHT22;6448;48.916;8.990;2023-01-19T01:23:35;5.90;52.70
12769;DHT22;6448;48.916;8.990;2023-01-19T01:24:36;5.90;52.70
12769;DHT22;6448;48.916;8.990;2023-01-19T01:25:38;5.90;52.80
12769;DHT22;6448;48.916;8.990;2023-01-19T01:26:39;5.90;52.70
12769;DHT22;6448;48.916;8.990;2023-01-19T01:27:41;5.90;52.70
12769;DHT22;6448;48.916;8.990;2023-01-19T01:28:42;5.90;52.70
12769;DHT22;6448;48.916;8.990;2023-01-19T01:29:44;5.90;52.70
12769;DHT22;6448;48.916;8.990;2023-01-19T01:30:46;5.90;52.70
12769;DHT22;6448;48.916;8.990;2023-01-19T01:31:47;6.20;52.80
12769;DHT22;6448;48.916;8.990;2023-01-19T01:32:48;5.90;52.60
12769;DHT22;6448;48.916;8.990;2023-01-19T01:33:50;5.90;52.60
12769;DHT22;6448;48.916;8.990;2023-01-19T01:34:53;5.90;52.60
12769;DHT22;6448;48.916;8.990;2023-01-19T01:35:54;5.90;52.60
12769;DHT22;6448;48.916;8.990;2023-01-19T01:36:55;5.90;52.60
12769;DHT22;6448;48.916;8.990;2023-01-19T01:37:57;5.80;52.60
12769;DHT22;6448;48.916;8.990;2023-01-19T01:38:58;5.90;52.60
12769;DHT22;6448;48.916;8.990;2023-01-19T01:40:00;5.90;52.60
12769;DHT22;6448;48.916;8.990;2023-01-19T01:41:01;5.90;52.60
12769;DHT22;6448;48.916;8.990;2023-01-19T01:42:08;5.90;52.60
12769;DHT22;6448;48.916;8.990;2023-01-19T01:43:15;6.00;52.60
12769;DHT22;6448;48.916;8.990;2023-01-19T01:44:48;5.90;52.60
12769;DHT22;6448;48.916;8.990;2023-01-19T01:45:49;5.90;52.60
12769;DHT22;6448;48.916;8.990;2023-01-19T01:46:53;5.80;52.60
12769;DHT22;6448;48.916;8.990;2023-01-19T01:47:55;5.80;52.50
12769;DHT22;6448;48.916;8.990;2023-01-19T01:49:02;5.80;52.50
12769;DHT22;6448;48.916;8.990;2023-01-19T01:50:09;5.90;52.60
12769;DHT22;6448;48.916;8.990;2023-01-19T01:51:14;5.90;52.50
12769;DHT22;6448;48.916;8.990;2023-01-19T01:52:26;5.80;52.50
12769;DHT22;6448;48.916;8.990;2023-01-19T01:53:30;5.80;52.40
12769;DHT22;6448;48.916;8.990;2023-01-19T01:54:33;5.80;52.30
12769;DHT22;6448;48.916;8.990;2023-01-19T01:55:38;5.80;52.30
12769;DHT22;6448;48.916;8.990;2023-01-19T01:56:42;5.80;52.30
12769;DHT22;6448;48.916;8.990;2023-01-19T01:57:49;5.80;52.30
12769;DHT22;6448;48.916;8.990;2023-01-19T01:58:50;5.80;52.30
12769;DHT22;6448;48.916;8.990;2023-01-19T01:59:53;5.80;52.30
12769;DHT22;6448;48.916;8.990;2023-01-19T02:00:56;5.80;52.30
12769;DHT22;6448;48.916;8.990;2023-01-19T02:02:18;5.80;52.20
12769;DHT22;6448;48.916;8.990;2023-01-19T02:03:37;5.80;52.20
12769;DHT22;6448;48.916;8.990;2023-01-19T02:04:39;5.70;52.20
12769;DHT22;6448;48.916;8.990;2023-01-19T02:05:45;5.70;52.20
12769;DHT22;6448;48.916;8.990;2023-01-19T02:06:47;5.70;52.20
12769;DHT22;6448;48.916;8.990;2023-01-19T02:08:09;5.70;52.30
12769;DHT22;6448;48.916;8.990;2023-01-19T02:09:31;5.70;52.40
12769;DHT22;6448;48.916;8.990;2023-01-19T02:10:53;5.70;52.40
12769;DHT22;6448;48.916;8.990;2023-01-19T02:12:13;5.70;52.40
12769;DHT22;6448;48.916;8.990;2023-01-19T02:13:33;5.70;52.50
12769;DHT22;6448;48.916;8.990;2023-01-19T02:14:36;5.70;52.50
12769;DHT22;6448;48.916;8.990;2023-01-19T02:15:37;5.70;52.50
12769;DHT22;6448;48.916;8.990;2023-01-19T02:16:38;5.70;52.50
12769;DHT22;6448;48.916;8.990;2023-01-19T02:17:39;5.70;52.50
12769;DHT22;6448;48.916;8.990;2023-01-19T02:18:42;5.70;52.60
12769;DHT22;6448;48.916;8.990;2023-01-19T02:19:44;5.70;52.60
12769;DHT22;6448;48.916;8.990;2023-01-19T02:20:53;5.70;52.60
12769;DHT22;6448;48.916;8.990;2023-01-19T02:22:00;5.70;52.60
12769;DHT22;6448;48.916;8.990;2023-01-19T02:23:07;5.90;52.70
12769;DHT22;6448;48.916;8.990;2023-01-19T02:24:16;5.70;52.50
12769;DHT22;6448;48.916;8.990;2023-01-19T02:25:19;5.70;52.60
12769;DHT22;6448;48.916;8.990;2023-01-19T02:26:21;5.70;52.50
12769;DHT22;6448;48.916;8.990;2023-01-19T02:27:23;5.70;52.50
12769;DHT22;6448;48.916;8.990;2023-01-19T02:28:26;5.70;52.50
12769;DHT22;6448;48.916;8.990;2023-01-19T02:29:28;5.70;52.50
12769;DHT22;6448;48.916;8.990;2023-01-19T02:30:29;5.70;52.50
12769;DHT22;6448;48.916;8.990;2023-01-19T02:31:33;5.70;52.50
12769;DHT22;6448;48.916;8.990;2023-01-19T02:32:34;5.70;52.50
12769;DHT22;6448;48.916;8.990;2023-01-19T02:33:37;5.70;52.50
12769;DHT22;6448;48.916;8.990;2023-01-19T02:34:38;5.70;52.50
12769;DHT22;6448;48.916;8.990;2023-01-19T02:35:40;5.70;52.40
12769;DHT22;6448;48.916;8.990;2023-01-19T02:36:44;5.70;52.40
12769;DHT22;6448;48.916;8.990;2023-01-19T02:37:48;5.70;52.50
12769;DHT22;6448;48.916;8.990;2023-01-19T02:38:50;5.70;52.40
12769;DHT22;6448;48.916;8.990;2023-01-19T02:39:58;5.70;52.50
12769;DHT22;6448;48.916;8.990;2023-01-19T02:41:01;5.70;52.50
12769;DHT22;6448;48.916;8.990;2023-01-19T02:42:08;5.70;52.40
12769;DHT22;6448;48.916;8.990;2023-01-19T02:43:10;5.70;52.40
12769;DHT22;6448;48.916;8.990;2023-01-19T02:44:13;5.70;52.40
12769;DHT22;6448;48.916;8.990;2023-01-19T02:45:19;5.70;52.50
12769;DHT22;6448;48.916;8.990;2023-01-19T02:46:21;5.70;52.40
12769;DHT22;6448;48.916;8.990;2023-01-19T02:47:23;5.70;52.40
12769;DHT22;6448;48.916;8.990;2023-01-19T02:48:24;5.70;52.40
12769;DHT22;6448;48.916;8.990;2023-01-19T02:49:40;5.70;52.40
12769;DHT22;6448;48.916;8.990;2023-01-19T02:50:43;5.70;52.50
12769;DHT22;6448;48.916;8.990;2023-01-19T02:51:48;5.70;52.50
12769;DHT22;6448;48.916;8.990;2023-01-19T02:52:50;5.70;52.50
12769;DHT22;6448;48.916;8.990;2023-01-19T02:54:08;5.80;52.60
12769;DHT22;6448;48.916;8.990;2023-01-19T02:55:16;5.80;52.60
12769;DHT22;6448;48.916;8.990;2023-01-19T02:56:37;5.60;52.50
12769;DHT22;6448;48.916;8.990;2023-01-19T02:57:47;5.70;52.50
12769;DHT22;6448;48.916;8.990;2023-01-19T02:58:56;5.70;52.50
12769;DHT22;6448;48.916;8.990;2023-01-19T03:00:16;5.70;52.50
12769;DHT22;6448;48.916;8.990;2023-01-19T03:01:26;5.70;52.60
12769;DHT22;6448;48.916;8.990;2023-01-19T03:02:34;5.70;52.50
12769;DHT22;6448;48.916;8.990;2023-01-19T03:03:43;5.70;52.50
12769;DHT22;6448;48.916;8.990;2023-01-19T03:04:57;5.70;52.50
12769;DHT22;6448;48.916;8.990;2023-01-19T03:06:04;5.70;52.50
12769;DHT22;6448;48.916;8.990;2023-01-19T03:07:09;5.70;52.40
12769;DHT22;6448;48.916;8.990;2023-01-19T03:08:18;5.70;52.50
12769;DHT22;6448;48.916;8.990;2023-01-19T03:09:26;5.70;52.50
12769;DHT22;6448;48.916;8.990;2023-01-19T03:10:37;5.70;52.50
12769;DHT22;6448;48.916;8.990;2023-01-19T03:11:45;5.60;52.40
12769;DHT22;6448;48.916;8.990;2023-01-19T03:12:53;5.70;52.40
12769;DHT22;6448;48.916;8.990;2023-01-19T03:14:02;5.70;52.40
12769;DHT22;6448;48.916;8.990;2023-01-19T03:15:10;5.70;52.40
12769;DHT22;6448;48.916;8.990;2023-01-19T03:16:17;5.60;52.30
12769;DHT22;6448;48.916;8.990;2023-01-19T03:17:21;5.90;52.40
12769;DHT22;6448;48.916;8.990;2023-01-19T03:18:25;5.70;52.30
12769;DHT22;6448;48.916;8.990;2023-01-19T03:19:32;5.60;52.30
12769;DHT22;6448;48.916;8.990;2023-01-19T03:20:33;5.60;52.30
12769;DHT22;6448;48.916;8.990;2023-01-19T03:21:36;5.70;52.40
12769;DHT22;6448;48.916;8.990;2023-01-19T03:22:40;5.60;52.30
12769;DHT22;6448;48.916;8.990;2023-01-19T03:23:44;5.60;52.30
12769;DHT22;6448;48.916;8.990;2023-01-19T03:24:47;5.80;52.50
12769;DHT22;6448;48.916;8.990;2023-01-19T03:25:51;5.60;52.30
12769;DHT22;6448;48.916;8.990;2023-01-19T03:26:57;5.60;52.40
12769;DHT22;6448;48.916;8.990;2023-01-19T03:27:59;5.60;52.40
12769;DHT22;6448;48.916;8.990;2023-01-19T03:29:01;5.60;52.40
12769;DHT22;6448;48.916;8.990;2023-01-19T03:30:06;5.60;52.40
12769;DHT22;6448;48.916;8.990;2023-01-19T03:31:12;5.60;52.40
12769;DHT22;6448;48.916;8.990;2023-01-19T03:32:17;5.60;52.40
12769;DHT22;6448;48.916;8.990;2023-01-19T03:33:22;5.60;52.40
12769;DHT22;6448;48.916;8.990;2023-01-19T03:34:27;5.60;52.30
12769;DHT22;6448;48.916;8.990;2023-01-19T03:35:31;5.60;52.30
12769;DHT22;6448;48.916;8.990;2023-01-19T03:36:38;5.60;52.30
12769;DHT22;6448;48.916;8.990;2023-01-19T03:37:43;5.60;52.40
12769;DHT22;6448;48.916;8.990;2023-01-19T03:38:46;5.60;52.30
12769;DHT22;6448;48.916;8.990;2023-01-19T03:39:48;5.60;52.30
12769;DHT22;6448;48.916;8.990;2023-01-19T03:40:52;5.60;52.40
12769;DHT22;6448;48.916;8.990;2023-01-19T03:41:57;5.60;52.30
12769;DHT22;6448;48.916;8.990;2023-01-19T03:43:03;5.60;52.30
12769;DHT22;6448;48.916;8.990;2023-01-19T03:44:04;5.60;52.30
12769;DHT22;6448;48.916;8.990;2023-01-19T03:45:08;5.60;52.40
12769;DHT22;6448;48.916;8.990;2023-01-19T03:46:09;5.60;52.40
12769;DHT22;6448;48.916;8.990;2023-01-19T03:47:12;5.60;52.40
12769;DHT22;6448;48.916;8.990;2023-01-19T03:48:14;5.60;52.40
12769;DHT22;6448;48.916;8.990;2023-01-19T03:49:16;5.60;52.40
12769;DHT22;6448;48.916;8.990;2023-01-19T03:50:22;5.50;52.30
12769;DHT22;6448;48.916;8.990;2023-01-19T03:51:25;5.60;52.40
12769;DHT22;6448;48.916;8.990;2023-01-19T03:52:27;5.50;52.30
12769;DHT22;6448;48.916;8.990;2023-01-19T03:53:29;5.50;52.20
12769;DHT22;6448;48.916;8.990;2023-01-19T03:54:30;5.50;52.10
12769;DHT22;6448;48.916;8.990;2023-01-19T03:55:32;5.50;52.10
12769;DHT22;6448;48.916;8.990;2023-01-19T03:56:35;5.50;52.10
12769;DHT22;6448;48.916;8.990;2023-01-19T03:57:37;5.50;52.10
12769;DHT22;6448;48.916;8.990;2023-01-19T03:58:38;5.50;52.20
12769;DHT22;6448;48.916;8.990;2023-01-19T03:59:39;5.60;52.20
12769;DHT22;6448;48.916;8.990;2023-01-19T04:00:40;5.50;52.10
12769;DHT22;6448;48.916;8.990;2023-01-19T04:01:42;5.50;52.10
12769;DHT22;6448;48.916;8.990;2023-01-19T04:02:43;5.50;52.10
12769;DHT22;6448;48.916;8.990;2023-01-19T04:03:44;5.50;52.10
12769;DHT22;6448;48.916;8.990;2023-01-19T04:04:46;5.50;52.10
12769;DHT22;6448;48.916;8.990;2023-01-19T04:05:48;5.50;52.10
12769;DHT22;6448;48.916;8.990;2023-01-19T04:06:49;5.50;52.10
12769;DHT22;6448;48.916;8.990;2023-01-19T04:07:51;5.50;52.10
12769;DHT22;6448;48.916;8.990;2023-01-19T04:08:52;5.50;52.10
12769;DHT22;6448;48.916;8.990;2023-01-19T04:09:54;5.50;52.10
12769;DHT22;6448;48.916;8.990;2023-01-19T04:10:56;5.50;52.10
12769;DHT22;6448;48.916;8.990;2023-01-19T04:11:59;5.50;52.10
12769;DHT22;6448;48.916;8.990;2023-01-19T04:13:02;5.50;52.10
12769;DHT22;6448;48.916;8.990;2023-01-19T04:14:03;5.50;52.10
12769;DHT22;6448;48.916;8.990;2023-01-19T04:15:06;5.50;52.10
12769;DHT22;6448;48.916;8.990;2023-01-19T04:16:09;5.50;52.10
12769;DHT22;6448;48.916;8.990;2023-01-19T04:17:10;5.50;52.10
12769;DHT22;6448;48.916;8.990;2023-01-19T04:18:11;5.50;52.10
12769;DHT22;6448;48.916;8.990;2023-01-19T04:19:12;5.50;52.10
12769;DHT22;6448;48.916;8.990;2023-01-19T04:20:14;5.50;52.10
12769;DHT22;6448;48.916;8.990;2023-01-19T04:21:16;5.50;52.10
12769;DHT22;6448;48.916;8.990;2023-01-19T04:22:17;5.50;52.70
12769;DHT22;6448;48.916;8.990;2023-01-19T04:23:18;5.50;52.10
12769;DHT22;6448;48.916;8.990;2023-01-19T04:24:20;5.50;52.10
12769;DHT22;6448;48.916;8.990;2023-01-19T04:25:21;5.50;52.10
12769;DHT22;6448;48.916;8.990;2023-01-19T04:26:24;5.40;52.10
12769;DHT22;6448;48.916;8.990;2023-01-19T04:27:26;5.50;52.10
12769;DHT22;6448;48.916;8.990;2023-01-19T04:28:29;5.40;52.10
12769;DHT22;6448;48.916;8.990;2023-01-19T04:29:30;5.40;52.80
12769;DHT22;6448;48.916;8.990;2023-01-19T04:30:32;5.40;52.10
12769;DHT22;6448;48.916;8.990;2023-01-19T04:31:32;5.40;52.10
12769;DHT22;6448;48.916;8.990;2023-01-19T04:32:35;5.40;52.10
12769;DHT22;6448;48.916;8.990;2023-01-19T04:33:35;5.50;52.20
12769;DHT22;6448;48.916;8.990;2023-01-19T04:34:37;5.40;52.20
12769;DHT22;6448;48.916;8.990;2023-01-19T04:35:38;5.40;52.20
12769;DHT22;6448;48.916;8.990;2023-01-19T04:36:40;5.50;52.20
12769;DHT22;6448;48.916;8.990;2023-01-19T04:37:41;5.50;52.20
12769;DHT22;6448;48.916;8.990;2023-01-19T04:38:42;5.40;52.10
12769;DHT22;6448;48.916;8.990;2023-01-19T04:39:46;5.40;52.10
12769;DHT22;6448;48.916;8.990;2023-01-19T04:40:47;5.40;52.10
12769;DHT22;6448;48.916;8.990;2023-01-19T04:41:49;5.40;52.10
12769;DHT22;6448;48.916;8.990;2023-01-19T04:42:52;5.40;52.10
12769;DHT22;6448;48.916;8.990;2023-01-19T04:43:54;5.50;52.10
12769;DHT22;6448;48.916;8.990;2023-01-19T04:44:55;5.40;52.10
12769;DHT22;6448;48.916;8.990;2023-01-19T04:45:57;5.40;52.10
12769;DHT22;6448;48.916;8.990;2023-01-19T04:46:58;5.40;52.10
12769;DHT22;6448;48.916;8.990;2023-01-19T04:48:01;5.40;52.10
12769;DHT22;6448;48.916;8.990;2023-01-19T04:49:03;5.40;52.10
12769;DHT22;6448;48.916;8.990;2023-01-19T04:50:06;5.40;52.10
12769;DHT22;6448;48.916;8.990;2023-01-19T04:51:07;5.40;52.10
12769;DHT22;6448;48.916;8.990;2023-01-19T04:52:09;5.40;52.10
12769;DHT22;6448;48.916;8.990;2023-01-19T04:53:10;5.40;52.10
12769;DHT22;6448;48.916;8.990;2023-01-19T04:54:13;5.40;52.10
12769;DHT22;6448;48.916;8.990;2023-01-19T04:55:14;5.40;52.10
12769;DHT22;6448;48.916;8.990;2023-01-19T04:56:16;5.40;52.10
12769;DHT22;6448;48.916;8.990;2023-01-19T04:57:16;5.40;52.10
12769;DHT22;6448;48.916;8.990;2023-01-19T04:58:20;5.40;52.20
12769;DHT22;6448;48.916;8.990;2023-01-19T04:59:20;5.40;52.10
12769;DHT22;6448;48.916;8.990;2023-01-19T05:00:22;5.20;52.00
12769;DHT22;6448;48.916;8.990;2023-01-19T05:01:23;5.40;52.20
12769;DHT22;6448;48.916;8.990;2023-01-19T05:02:25;5.40;52.20
12769;DHT22;6448;48.916;8.990;2023-01-19T05:03:26;5.30;52.20
12769;DHT22;6448;48.916;8.990;2023-01-19T05:04:27;5.30;52.20
12769;DHT22;6448;48.916;8.990;2023-01-19T05:05:28;5.40;52.20
12769;DHT22;6448;48.916;8.990;2023-01-19T05:06:32;5.30;52.10
12769;DHT22;6448;48.916;8.990;2023-01-19T05:07:33;5.30;52.20
12769;DHT22;6448;48.916;8.990;2023-01-19T05:08:35;5.30;52.20
12769;DHT22;6448;48.916;8.990;2023-01-19T05:09:36;5.30;52.20
12769;DHT22;6448;48.916;8.990;2023-01-19T05:10:38;5.30;52.20
12769;DHT22;6448;48.916;8.990;2023-01-19T05:11:39;5.30;52.10
12769;DHT22;6448;48.916;8.990;2023-01-19T05:12:40;5.30;52.10
12769;DHT22;6448;48.916;8.990;2023-01-19T05:13:43;5.30;52.10
12769;DHT22;6448;48.916;8.990;2023-01-19T05:14:44;5.30;52.10
12769;DHT22;6448;48.916;8.990;2023-01-19T05:15:45;5.30;52.10
12769;DHT22;6448;48.916;8.990;2023-01-19T05:16:47;5.30;52.10
12769;DHT22;6448;48.916;8.990;2023-01-19T05:17:48;5.30;52.10
12769;DHT22;6448;48.916;8.990;2023-01-19T05:18:49;5.30;52.10
12769;DHT22;6448;48.916;8.990;2023-01-19T05:19:50;5.30;52.10
12769;DHT22;6448;48.916;8.990;2023-01-19T05:20:52;5.30;52.20
12769;DHT22;6448;48.916;8.990;2023-01-19T05:21:53;5.30;52.20
12769;DHT22;6448;48.916;8.990;2023-01-19T05:22:54;5.40;52.30
12769;DHT22;6448;48.916;8.990;2023-01-19T05:23:55;5.50;52.30
12769;DHT22;6448;48.916;8.990;2023-01-19T05:24:57;5.20;52.20
12769;DHT22;6448;48.916;8.990;2023-01-19T05:25:58;5.20;52.20
12769;DHT22;6448;48.916;8.990;2023-01-19T05:27:01;5.20;52.30
12769;DHT22;6448;48.916;8.990;2023-01-19T05:28:02;5.20;52.30
12769;DHT22;6448;48.916;8.990;2023-01-19T05:29:05;5.20;52.30
12769;DHT22;6448;48.916;8.990;2023-01-19T05:30:07;5.20;52.60
12769;DHT22;6448;48.916;8.990;2023-01-19T05:31:09;5.20;52.40
12769;DHT22;6448;48.916;8.990;2023-01-19T05:32:11;5.20;52.30
12769;DHT22;6448;48.916;8.990;2023-01-19T05:33:13;5.20;52.30
12769;DHT22;6448;48.916;8.990;2023-01-19T05:34:14;5.20;52.30
12769;DHT22;6448;48.916;8.990;2023-01-19T05:35:15;5.20;52.30
12769;DHT22;6448;48.916;8.990;2023-01-19T05:36:17;5.20;52.30
12769;DHT22;6448;48.916;8.990;2023-01-19T05:37:18;5.20;52.30
12769;DHT22;6448;48.916;8.990;2023-01-19T05:38:20;5.10;52.30
12769;DHT22;6448;48.916;8.990;2023-01-19T05:39:21;5.10;52.30
12769;DHT22;6448;48.916;8.990;2023-01-19T05:40:23;5.10;52.30
12769;DHT22;6448;48.916;8.990;2023-01-19T05:41:24;5.10;52.40
12769;DHT22;6448;48.916;8.990;2023-01-19T05:42:26;5.10;52.40
12769;DHT22;6448;48.916;8.990;2023-01-19T05:43:26;5.10;52.40
12769;DHT22;6448;48.916;8.990;2023-01-19T05:44:29;5.10;52.50
12769;DHT22;6448;48.916;8.990;2023-01-19T05:45:31;5.10;52.60
12769;DHT22;6448;48.916;8.990;2023-01-19T05:46:33;5.10;52.60
12769;DHT22;6448;48.916;8.990;2023-01-19T05:47:34;5.10;52.60
12769;DHT22;6448;48.916;8.990;2023-01-19T05:48:35;5.10;52.60
12769;DHT22;6448;48.916;8.990;2023-01-19T05:49:36;5.10;52.60
12769;DHT22;6448;48.916;8.990;2023-01-19T05:50:38;5.10;52.60
12769;DHT22;6448;48.916;8.990;2023-01-19T05:51:39;5.10;52.60
12769;DHT22;6448;48.916;8.990;2023-01-19T05:52:44;5.10;52.70
12769;DHT22;6448;48.916;8.990;2023-01-19T05:53:45;5.10;52.70
12769;DHT22;6448;48.916;8.990;2023-01-19T05:54:47;5.10;52.60
12769;DHT22;6448;48.916;8.990;2023-01-19T05:55:48;5.10;52.60
12769;DHT22;6448;48.916;8.990;2023-01-19T05:56:50;5.10;52.70
12769;DHT22;6448;48.916;8.990;2023-01-19T05:57:51;5.10;52.60
12769;DHT22;6448;48.916;8.990;2023-01-19T05:58:52;5.10;52.70
12769;DHT22;6448;48.916;8.990;2023-01-19T05:59:54;5.10;52.60
12769;DHT22;6448;48.916;8.990;2023-01-19T06:00:57;5.10;52.60
12769;DHT22;6448;48.916;8.990;2023-01-19T06:02:01;5.10;52.70
12769;DHT22;6448;48.916;8.990;2023-01-19T06:03:03;5.10;52.60
12769;DHT22;6448;48.916;8.990;2023-01-19T06:04:05;5.10;52.60
12769;DHT22;6448;48.916;8.990;2023-01-19T06:05:08;5.10;52.60
12769;DHT22;6448;48.916;8.990;2023-01-19T06:06:09;5.10;52.60
12769;DHT22;6448;48.916;8.990;2023-01-19T06:07:11;5.10;52.60
12769;DHT22;6448;48.916;8.990;2023-01-19T06:08:12;5.10;52.50
12769;DHT22;6448;48.916;8.990;2023-01-19T06:09:14;5.10;52.50
12769;DHT22;6448;48.916;8.990;2023-01-19T06:10:16;5.10;52.50
12769;DHT22;6448;48.916;8.990;2023-01-19T06:11:18;5.10;52.50
12769;DHT22;6448;48.916;8.990;2023-01-19T06:12:19;5.10;52.60
12769;DHT22;6448;48.916;8.990;2023-01-19T06:13:21;5.10;52.50
12769;DHT22;6448;48.916;8.990;2023-01-19T06:14:22;5.00;52.50
12769;DHT22;6448;48.916;8.990;2023-01-19T06:15:25;5.10;52.60
12769;DHT22;6448;48.916;8.990;2023-01-19T06:16:26;5.10;52.60
12769;DHT22;6448;48.916;8.990;2023-01-19T06:17:30;5.10;52.60
12769;DHT22;6448;48.916;8.990;2023-01-19T06:18:31;5.10;52.70
12769;DHT22;6448;48.916;8.990;2023-01-19T06:19:32;5.10;52.80
12769;DHT22;6448;48.916;8.990;2023-01-19T06:20:34;5.10;52.80
12769;DHT22;6448;48.916;8.990;2023-01-19T06:21:36;5.10;52.90
12769;DHT22;6448;48.916;8.990;2023-01-19T06:22:40;5.10;52.90
12769;DHT22;6448;48.916;8.990;2023-01-19T06:23:41;5.10;52.90
12769;DHT22;6448;48.916;8.990;2023-01-19T06:24:43;5.10;52.90
12769;DHT22;6448;48.916;8.990;2023-01-19T06:25:43;5.10;52.90
12769;DHT22;6448;48.916;8.990;2023-01-19T06:26:45;4.80;52.80
12769;DHT22;6448;48.916;8.990;2023-01-19T06:27:46;5.10;53.00
12769;DHT22;6448;48.916;8.990;2023-01-19T06:28:49;5.10;53.00
12769;DHT22;6448;48.916;8.990;2023-01-19T06:29:51;5.10;53.10
12769;DHT22;6448;48.916;8.990;2023-01-19T06:30:54;5.10;53.00
12769;DHT22;6448;48.916;8.990;2023-01-19T06:31:56;5.10;53.10
12769;DHT22;6448;48.916;8.990;2023-01-19T06:32:57;5.10;53.10
12769;DHT22;6448;48.916;8.990;2023-01-19T06:33:59;5.10;53.10
12769;DHT22;6448;48.916;8.990;2023-01-19T06:35:00;5.10;53.10
12769;DHT22;6448;48.916;8.990;2023-01-19T06:36:02;5.10;53.10
12769;DHT22;6448;48.916;8.990;2023-01-19T06:37:04;5.10;53.10
12769;DHT22;6448;48.916;8.990;2023-01-19T06:38:05;5.10;53.10
12769;DHT22;6448;48.916;8.990;2023-01-19T06:39:08;5.10;53.00
12769;DHT22;6448;48.916;8.990;2023-01-19T06:40:11;5.10;53.10
12769;DHT22;6448;48.916;8.990;2023-01-19T06:41:12;5.10;53.00
12769;DHT22;6448;48.916;8.990;2023-01-19T06:42:13;5.00;53.00
12769;DHT22;6448;48.916;8.990;2023-01-19T06:43:14;5.10;53.00
12769;DHT22;6448;48.916;8.990;2023-01-19T06:44:16;5.10;53.10
12769;DHT22;6448;48.916;8.990;2023-01-19T06:45:17;5.10;53.20
12769;DHT22;6448;48.916;8.990;2023-01-19T06:46:20;5.10;53.20
12769;DHT22;6448;48.916;8.990;2023-01-19T06:47:21;5.10;53.70
12769;DHT22;6448;48.916;8.990;2023-01-19T06:48:23;5.10;53.00
12769;DHT22;6448;48.916;8.990;2023-01-19T06:49:25;5.10;53.00
12769;DHT22;6448;48.916;8.990;2023-01-19T06:50:26;5.10;53.10
12769;DHT22;6448;48.916;8.990;2023-01-19T06:51:27;5.10;53.10
12769;DHT22;6448;48.916;8.990;2023-01-19T06:52:29;5.10;53.10